Time;durP1;ratioP1;P1;durP2;ratioP2;P2;SDS_P1;SDS_P2;PMS_P1;PMS_P2;Temp;Humidity;BMP_temperature;BMP_pressure;BME280_temperature;BME280_humidity;BME280_pressure;Samples;Min_cycle;Max_cycle;Signal;HPM_P1;HPM_P2
2022/07/26 00:01:37;;;;;;;6.12;4.10;;;;;;;28.18;42.08;100396.20;1741358;81;21552;-83
2022/07/26 00:04:04;;;;;;;4.58;4.10;;;;;;;28.18;42.08;100389.83;1741063;81;21937;-83
2022/07/26 00:06:30;;;;;;;5.12;4.25;;;;;;;28.17;42.08;100389.02;1741154;81;21010;-82
2022/07/26 00:08:57;;;;;;;6.58;4.22;;;;;;;28.18;42.05;100389.20;1741002;81;21010;-82
2022/07/26 00:11:24;;;;;;;4.87;4.03;;;;;;;28.17;42.08;100386.22;1740935;81;21121;-82
2022/07/26 00:13:51;;;;;;;4.15;3.67;;;;;;;28.18;42.08;100390.61;1741256;81;21046;-82
2022/07/26 00:16:17;;;;;;;4.62;4.10;;;;;;;28.17;42.09;100384.02;1741237;81;21062;-82
2022/07/26 00:18:44;;;;;;;4.15;3.70;;;;;;;28.17;42.10;100389.02;1740960;81;20999;-82
2022/07/26 00:21:10;;;;;;;5.33;4.03;;;;;;;28.17;42.11;100387.62;1741234;81;20997;-82
2022/07/26 00:23:36;;;;;;;5.10;3.98;;;;;;;28.17;42.11;100392.41;1740899;81;21156;-82
2022/07/26 00:26:03;;;;;;;4.40;4.00;;;;;;;28.17;42.13;100391.81;1740840;81;21077;-82
2022/07/26 00:28:29;;;;;;;6.25;4.22;;;;;;;28.17;42.15;100388.20;1741048;81;21102;-82
2022/07/26 00:30:56;;;;;;;5.30;3.77;;;;;;;28.16;42.15;100381.81;1740997;81;21742;-82
2022/07/26 00:33:22;;;;;;;5.72;4.45;;;;;;;28.16;42.16;100381.81;1740692;81;21013;-82
2022/07/26 00:35:49;;;;;;;4.60;4.08;;;;;;;28.16;42.18;100377.61;1741062;81;21120;-83
2022/07/26 00:38:15;;;;;;;5.53;4.17;;;;;;;28.15;42.18;100379.59;1741160;81;21061;-83
2022/07/26 00:40:42;;;;;;;5.60;3.87;;;;;;;28.16;42.17;100374.81;1740861;81;21550;-83
2022/07/26 00:43:08;;;;;;;5.22;4.40;;;;;;;28.15;42.20;100379.59;1740807;81;21001;-82
2022/07/26 00:45:40;;;;;;;4.80;4.10;;;;;;;28.17;42.21;100381.22;1740989;81;21061;-82
2022/07/26 00:48:07;;;;;;;5.58;4.42;;;;;;;28.15;42.23;100372.61;1740521;81;21065;-83
2022/07/26 00:50:33;;;;;;;4.45;4.03;;;;;;;28.17;42.24;100378.42;1741116;81;21014;-83
2022/07/26 00:52:59;;;;;;;4.58;4.12;;;;;;;28.15;42.23;100371.20;1741219;81;23288;-82
2022/07/26 00:55:26;;;;;;;4.85;4.17;;;;;;;28.16;42.25;100377.61;1740806;81;21128;-83
2022/07/26 00:57:52;;;;;;;4.95;4.20;;;;;;;28.15;42.27;100377.39;1741323;81;20915;-83
2022/07/26 01:00:22;;;;;;;5.17;4.20;;;;;;;28.15;42.25;100375.41;1741189;81;21069;-83
2022/07/26 01:02:49;;;;;;;5.00;4.47;;;;;;;28.15;42.30;100379.59;1741152;81;21105;-83
2022/07/26 01:05:16;;;;;;;5.12;4.25;;;;;;;28.15;42.31;100375.98;1741361;81;21580;-83
2022/07/26 01:07:42;;;;;;;5.40;4.47;;;;;;;28.15;42.30;100376.80;1741453;81;21092;-83
2022/07/26 01:10:11;;;;;;;4.62;4.20;;;;;;;28.15;42.29;100371.80;1740975;81;21033;-83
2022/07/26 01:12:41;;;;;;;4.67;4.22;;;;;;;28.15;42.30;100371.80;1741273;81;21027;-83
2022/07/26 01:15:09;;;;;;;;;;;;;;;28.15;42.31;100369.00;1742491;81;21448;-83
2022/07/26 01:17:35;;;;;;;4.65;3.90;;;;;;;28.14;42.32;100371.58;1741088;81;21114;-82
2022/07/26 01:20:02;;;;;;;4.55;4.05;;;;;;;28.13;42.32;100365.79;1751252;80;21483;-83
2022/07/26 01:22:29;;;;;;;4.60;4.20;;;;;;;28.13;42.35;100363.00;1751859;80;21487;-82
2022/07/26 01:24:55;;;;;;;5.17;4.40;;;;;;;28.13;42.37;100365.17;1751548;80;21050;-82
2022/07/26 01:27:21;;;;;;;5.40;4.47;;;;;;;28.12;42.37;100362.19;1752003;81;21069;-83
2022/07/26 01:29:50;;;;;;;5.03;4.00;;;;;;;28.12;42.39;100360.78;1751866;80;21097;-82
2022/07/26 01:32:17;;;;;;;4.65;3.95;;;;;;;28.13;42.38;100358.18;1751547;80;21061;-83
2022/07/26 01:34:44;;;;;;;4.70;4.22;;;;;;;28.14;42.41;100357.59;1751799;81;21554;-83
2022/07/26 01:37:10;;;;;;;6.10;4.37;;;;;;;28.13;42.41;100351.81;1751747;80;21097;-82
2022/07/26 01:39:36;;;;;;;5.60;4.08;;;;;;;28.13;42.41;100356.78;1751670;80;21116;-83
2022/07/26 01:42:03;;;;;;;4.97;4.35;;;;;;;28.14;42.43;100350.59;1751948;80;20999;-83
2022/07/26 01:44:29;;;;;;;4.87;4.12;;;;;;;28.13;42.46;100349.79;1751523;80;21033;-83
2022/07/26 01:46:56;;;;;;;4.92;4.28;;;;;;;28.13;42.44;100345.59;1751399;80;21042;-83
2022/07/26 01:49:22;;;;;;;4.80;4.28;;;;;;;28.13;42.44;100340.62;1751807;81;21575;-82
2022/07/26 01:51:48;;;;;;;4.80;3.70;;;;;;;28.14;42.44;100346.41;1751911;80;21117;-83
2022/07/26 01:54:15;;;;;;;4.78;4.20;;;;;;;28.13;42.44;100348.39;1751534;80;21188;-82
2022/07/26 01:56:42;;;;;;;4.22;3.83;;;;;;;28.13;42.44;100351.81;1751755;80;21046;-83
2022/07/26 01:59:08;;;;;;;4.58;4.05;;;;;;;28.12;42.48;100342.61;1751587;80;21464;-82
2022/07/26 02:01:35;;;;;;;5.15;3.87;;;;;;;28.14;42.46;100342.20;1751565;80;21082;-83
2022/07/26 02:04:01;;;;;;;4.45;4.05;;;;;;;28.13;42.47;100341.40;1751703;80;21021;-83
2022/07/26 02:06:34;;;;;;;5.15;4.33;;;;;;;28.13;42.49;100341.40;1751842;81;21499;-83
2022/07/26 02:09:00;;;;;;;4.33;3.92;;;;;;;28.13;42.50;100347.61;1751634;80;21029;-83
2022/07/26 02:11:26;;;;;;;4.67;4.28;;;;;;;28.13;42.49;100344.19;1751753;80;21045;-83
2022/07/26 02:13:53;;;;;;;5.00;4.37;;;;;;;28.13;42.51;100349.02;1751724;80;21561;-83
2022/07/26 02:16:19;;;;;;;4.62;4.08;;;;;;;28.13;42.51;100349.79;1751694;80;21022;-83
2022/07/26 02:18:47;;;;;;;4.58;4.05;;;;;;;28.12;42.53;100345.41;1751974;80;21035;-83
2022/07/26 02:21:14;;;;;;;4.30;3.90;;;;;;;28.13;42.54;100344.81;1751820;80;21034;-85
2022/07/26 02:23:40;;;;;;;4.97;4.15;;;;;;;28.14;42.55;100352.00;1751570;80;21010;-83
2022/07/26 02:26:06;;;;;;;5.85;4.30;;;;;;;28.13;42.57;100348.39;1751688;80;21505;-83
2022/07/26 02:28:33;;;;;;;4.53;4.10;;;;;;;28.13;42.56;100346.21;1751897;81;21014;-83
2022/07/26 02:30:59;;;;;;;4.20;3.80;;;;;;;28.13;42.57;100350.41;1751576;80;21162;-84
2022/07/26 02:33:26;;;;;;;4.58;4.12;;;;;;;28.12;42.60;100346.80;1752287;81;21682;-83
2022/07/26 02:35:52;;;;;;;4.37;3.98;;;;;;;28.14;42.62;100349.20;1752104;80;21559;-83
2022/07/26 02:38:19;;;;;;;5.55;3.90;;;;;;;28.13;42.63;100346.99;1751870;81;21651;-83
2022/07/26 02:40:45;;;;;;;4.75;4.10;;;;;;;28.13;42.61;100344.81;1752183;80;21416;-83
2022/07/26 02:43:11;;;;;;;4.90;4.37;;;;;;;28.13;42.62;100343.41;1752018;80;21847;-83
2022/07/26 02:45:38;;;;;;;4.90;4.40;;;;;;;28.13;42.62;100344.81;1751798;82;21500;-83
2022/07/26 02:48:04;;;;;;;4.53;4.00;;;;;;;28.13;42.64;100350.41;1752066;80;21013;-83
2022/07/26 02:50:31;;;;;;;4.67;4.20;;;;;;;28.12;42.64;100355.19;1752062;81;21639;-83
2022/07/26 02:52:57;;;;;;;4.87;4.12;;;;;;;28.12;42.64;100352.40;1757737;80;21156;-83
2022/07/26 02:55:25;;;;;;;4.12;3.67;;;;;;;28.11;42.67;100354.16;1741435;81;21500;-83
2022/07/26 02:57:51;;;;;;;6.05;4.17;;;;;;;28.12;42.66;100352.98;1751768;81;20986;-83
2022/07/26 03:00:21;;;;;;;4.85;4.35;;;;;;;28.10;42.64;100349.16;1751536;81;21021;-83
2022/07/26 03:02:54;;;;;;;4.67;4.28;;;;;;;28.13;42.64;100354.60;1751722;80;21632;-83
2022/07/26 03:05:20;;;;;;;4.53;3.85;;;;;;;28.12;42.69;100357.18;1757392;80;21564;-83
2022/07/26 03:07:47;;;;;;;5.05;4.45;;;;;;;28.12;42.69;100355.78;1741362;82;20930;-83
2022/07/26 03:10:13;;;;;;;5.15;4.20;;;;;;;28.12;42.69;100357.18;1751735;80;21045;-83
2022/07/26 03:12:40;;;;;;;4.95;4.00;;;;;;;28.11;42.70;100351.36;1751614;80;20986;-84
2022/07/26 03:15:07;;;;;;;5.12;4.50;;;;;;;28.10;42.71;100358.14;1751821;81;21500;-83
2022/07/26 03:17:34;;;;;;;4.53;4.10;;;;;;;28.11;42.73;100356.96;1751892;80;21045;-83
2022/07/26 03:20:01;;;;;;;4.50;4.10;;;;;;;28.10;42.74;100357.55;1751543;80;21444;-83
2022/07/26 03:22:27;;;;;;;5.05;4.20;;;;;;;28.10;42.74;100360.34;1751628;80;21053;-82
2022/07/26 03:24:54;;;;;;;5.15;4.15;;;;;;;28.10;42.75;100358.95;1751772;80;21030;-82
2022/07/26 03:27:20;;;;;;;5.65;4.33;;;;;;;28.10;42.76;100351.95;1751498;80;21089;-82
2022/07/26 03:29:47;;;;;;;4.87;4.20;;;;;;;28.11;42.77;100355.56;1751935;80;21075;-82
2022/07/26 03:32:13;;;;;;;4.30;3.90;;;;;;;28.11;42.77;100348.57;1751823;80;21111;-82
2022/07/26 03:34:40;;;;;;;4.28;3.67;;;;;;;28.10;42.77;100346.95;1751389;80;21029;-83
2022/07/26 03:37:06;;;;;;;4.87;4.30;;;;;;;28.10;42.79;100353.35;1751853;80;21393;-83
2022/07/26 03:39:32;;;;;;;5.10;3.98;;;;;;;28.10;42.80;100353.35;1751567;80;21127;-82
2022/07/26 03:41:59;;;;;;;5.60;4.30;;;;;;;28.11;42.80;100354.16;1751124;80;21089;-82
2022/07/26 03:44:25;;;;;;;5.97;4.05;;;;;;;28.10;42.82;100351.14;1751611;80;21025;-82
2022/07/26 03:46:52;;;;;;;4.35;3.90;;;;;;;28.10;42.80;100356.15;1752490;81;21106;-82
2022/07/26 03:49:18;;;;;;;4.12;3.72;;;;;;;28.10;42.81;100353.35;1752609;80;21063;-82
2022/07/26 03:51:51;;;;;;;4.03;3.62;;;;;;;28.12;42.82;100359.98;1731142;82;21115;-82
2022/07/26 03:54:17;;;;;;;3.83;3.52;;;;;;;28.10;42.82;100353.35;1752551;81;21592;-82
2022/07/26 03:56:43;;;;;;;5.10;4.40;;;;;;;28.10;42.83;100357.55;1730690;82;21063;-83
2022/07/26 03:59:10;;;;;;;4.47;3.77;;;;;;;28.10;42.82;100366.53;1752637;81;21059;-83
2022/07/26 04:01:40;;;;;;;4.20;3.80;;;;;;;28.11;42.83;100359.75;1731343;82;21457;-83
2022/07/26 04:04:10;;;;;;;;;;;;;;;28.10;42.83;100360.34;1755175;81;21019;-82
2022/07/26 04:06:37;;;;;;;4.58;4.10;;;;;;;28.10;42.86;100363.73;1731375;82;20141;-82
2022/07/26 04:09:04;;;;;;;5.28;3.92;;;;;;;28.08;42.81;100355.70;1753002;81;21515;-82
2022/07/26 04:11:30;;;;;;;4.00;3.60;;;;;;;28.08;42.83;100355.70;1730849;82;21539;-82
2022/07/26 04:14:03;;;;;;;4.62;3.87;;;;;;;28.09;42.84;100346.73;1752815;81;20919;-82
2022/07/26 04:16:29;;;;;;;4.95;4.05;;;;;;;28.08;42.85;100344.52;1752639;80;21049;-83
2022/07/26 04:18:56;;;;;;;4.42;3.42;;;;;;;28.09;42.84;100344.74;1752282;81;20986;-84
2022/07/26 04:21:22;;;;;;;4.90;3.90;;;;;;;28.08;42.85;100347.31;1752432;80;21522;-83
2022/07/26 04:23:48;;;;;;;4.75;4.03;;;;;;;28.09;42.87;100338.34;1752545;81;21057;-83
2022/07/26 04:26:21;;;;;;;4.97;3.65;;;;;;;28.09;42.87;100336.35;1752123;81;21073;-83
2022/07/26 04:28:47;;;;;;;4.22;3.80;;;;;;;28.09;42.89;100340.55;1752573;81;21140;-83
2022/07/26 04:31:13;;;;;;;4.92;4.08;;;;;;;28.09;42.89;100335.55;1752619;81;21536;-82
2022/07/26 04:33:40;;;;;;;5.78;4.10;;;;;;;28.10;42.89;100334.36;1752288;81;21580;-82
2022/07/26 04:36:07;;;;;;;5.92;4.45;;;;;;;28.09;42.90;100334.95;1752401;80;21049;-82
2022/07/26 04:38:33;;;;;;;4.90;3.90;;;;;;;28.09;42.90;100334.14;1752490;80;21646;-82
2022/07/26 04:41:00;;;;;;;4.70;3.92;;;;;;;28.10;42.92;100337.16;1752207;81;21536;-83
2022/07/26 04:43:26;;;;;;;5.00;4.30;;;;;;;28.09;42.92;100332.16;1752734;81;20938;-82
2022/07/26 04:45:53;;;;;;;4.05;3.65;;;;;;;28.09;42.93;100332.16;1754650;81;21802;-82
2022/07/26 04:48:19;;;;;;;4.70;4.20;;;;;;;28.10;42.90;100327.38;1737189;81;21009;-82
2022/07/26 04:50:45;;;;;;;5.20;4.03;;;;;;;28.10;42.90;100326.78;1754548;80;21006;-83
2022/07/26 04:53:12;;;;;;;4.20;3.80;;;;;;;28.10;42.90;100325.39;1754521;81;21081;-83
2022/07/26 04:55:38;;;;;;;6.03;4.33;;;;;;;28.09;42.94;100327.96;1754626;81;21030;-83
2022/07/26 04:58:05;;;;;;;4.60;3.83;;;;;;;28.10;42.93;100330.17;1754448;80;21010;-83
2022/07/26 05:00:31;;;;;;;6.80;4.05;;;;;;;28.08;42.96;100331.13;1754623;80;21049;-83
2022/07/26 05:02:59;;;;;;;6.05;4.58;;;;;;;28.06;43.00;100330.69;1754647;81;21511;-83
2022/07/26 05:05:27;;;;;;;6.58;4.72;;;;;;;28.01;43.07;100326.23;1754754;81;21069;-83
2022/07/26 05:08:01;;;;;;;7.12;4.08;;;;;;;27.98;43.14;100327.00;1754549;81;21120;-83
2022/07/26 05:10:31;;;;;;;8.83;4.50;;;;;;;27.94;43.19;100323.34;1754543;80;21184;-83
2022/07/26 05:12:57;;;;;;;9.05;5.22;;;;;;;27.92;43.18;100331.30;1754913;81;21018;-83
2022/07/26 05:15:24;;;;;;;5.50;4.42;;;;;;;27.89;43.22;100325.08;1754859;81;21532;-83
2022/07/26 05:17:51;;;;;;;5.30;4.80;;;;;;;27.88;43.24;100324.85;1754459;81;21038;-83
2022/07/26 05:20:17;;;;;;;8.00;4.67;;;;;;;27.86;43.25;100323.05;1754755;80;21039;-83
2022/07/26 05:22:44;;;;;;;5.80;4.40;;;;;;;27.86;43.30;100323.63;1754745;81;21761;-83
2022/07/26 05:25:11;;;;;;;5.97;4.90;;;;;;;27.85;43.33;100324.81;1754513;80;21080;-83
2022/07/26 05:27:39;;;;;;;5.78;5.03;;;;;;;27.83;43.37;100323.81;1754826;80;21037;-83
2022/07/26 05:30:06;;;;;;;7.17;4.75;;;;;;;27.83;43.40;100321.61;1754734;80;21073;-84
2022/07/26 05:32:33;;;;;;;8.05;5.12;;;;;;;27.82;43.44;100319.39;1754477;81;21501;-83
2022/07/26 05:34:59;;;;;;;6.17;4.67;;;;;;;27.81;43.47;100320.57;1754759;80;21551;-83
2022/07/26 05:37:26;;;;;;;6.03;5.12;;;;;;;27.81;43.49;100319.17;1754513;80;20983;-83
2022/07/26 05:39:52;;;;;;;5.00;4.50;;;;;;;27.82;43.53;100325.58;1773383;80;20997;-82
2022/07/26 05:42:19;;;;;;;9.30;5.00;;;;;;;27.81;43.59;100321.16;1786031;80;21515;-82
2022/07/26 05:44:45;;;;;;;7.78;4.42;;;;;;;27.82;43.58;100318.59;1785594;79;20988;-82
2022/07/26 05:47:12;;;;;;;7.92;4.95;;;;;;;27.83;43.57;100317.41;1775595;80;21692;-82
2022/07/26 05:49:38;;;;;;;6.35;5.47;;;;;;;27.83;43.60;100319.62;1730804;81;21083;-82
2022/07/26 05:52:05;;;;;;;7.60;5.25;;;;;;;27.84;43.65;100321.83;1715654;83;20996;-82
2022/07/26 05:54:32;;;;;;;10.05;4.78;;;;;;;27.85;43.70;100320.03;1714881;82;21031;-82
2022/07/26 05:56:58;;;;;;;8.05;5.10;;;;;;;27.86;43.71;100319.44;1715155;83;21562;-82
2022/07/26 05:59:24;;;;;;;6.05;4.95;;;;;;;27.85;43.73;100315.02;1714908;83;21019;-82
2022/07/26 06:01:57;;;;;;;7.95;5.55;;;;;;;27.85;43.75;100317.23;1719280;81;21015;-82
2022/07/26 06:04:24;;;;;;;9.80;5.53;;;;;;;27.87;43.80;100321.06;1753935;80;21057;-83
2022/07/26 06:06:51;;;;;;;7.67;5.70;;;;;;;27.86;43.84;100316.05;1753924;80;21045;-82
2022/07/26 06:09:23;;;;;;;10.58;6.08;;;;;;;27.88;43.87;100321.28;1753210;81;21065;-82
2022/07/26 06:11:50;;;;;;;6.35;5.42;;;;;;;27.88;43.88;100324.08;1753517;80;21070;-83
2022/07/26 06:14:17;;;;;;;9.48;5.53;;;;;;;27.87;43.84;100324.66;1753501;80;21038;-83
2022/07/26 06:16:43;;;;;;;8.00;5.65;;;;;;;27.89;43.88;100322.28;1753771;80;21541;-83
2022/07/26 06:19:09;;;;;;;7.83;5.35;;;;;;;27.88;43.90;100317.86;1754015;81;21033;-83
2022/07/26 06:21:36;;;;;;;10.28;5.95;;;;;;;27.88;43.96;100316.47;1754053;81;20998;-83
2022/07/26 06:24:09;;;;;;;12.30;5.50;;;;;;;27.87;44.00;100320.47;1754028;80;21091;-83
2022/07/26 06:26:37;;;;;;;9.08;6.30;;;;;;;27.86;44.10;100309.66;1754035;81;21041;-83
2022/07/26 06:29:13;;;;;;;9.40;6.05;;;;;;;27.83;44.18;100316.83;1753731;80;21564;-84
2022/07/26 06:31:39;;;;;;;8.28;6.10;;;;;;;27.83;44.23;100316.02;1753816;80;21821;-83
2022/07/26 06:34:05;;;;;;;6.53;5.78;;;;;;;27.82;44.25;100311.01;1754159;81;21010;-83
2022/07/26 06:36:32;;;;;;;8.90;6.08;;;;;;;27.81;44.29;100305.20;1754251;81;21136;-83
2022/07/26 06:38:58;;;;;;;10.03;6.47;;;;;;;27.80;44.35;100302.77;1753545;80;21634;-83
2022/07/26 06:41:26;;;;;;;27.25;7.37;;;;;;;27.79;44.49;100301.19;1754121;81;21009;-83
2022/07/26 06:43:52;;;;;;;18.12;6.83;;;;;;;27.77;44.63;100311.33;1754060;81;21169;-83
2022/07/26 06:46:19;;;;;;;9.90;6.62;;;;;;;27.77;44.69;100309.94;1753904;80;21634;-83
2022/07/26 06:48:47;;;;;;;14.00;6.75;;;;;;;27.78;44.68;100305.16;1753814;80;21166;-83
2022/07/26 06:51:13;;;;;;;12.20;6.45;;;;;;;27.80;44.68;100308.36;1754109;81;20981;-83
2022/07/26 06:53:39;;;;;;;14.18;6.60;;;;;;;27.82;44.67;100303.21;1753684;80;21112;-83
2022/07/26 06:56:07;;;;;;;11.97;6.20;;;;;;;27.83;44.68;100309.02;1754123;81;21282;-83
2022/07/26 06:58:33;;;;;;;12.53;6.60;;;;;;;27.84;44.66;100307.84;1753930;80;21088;-83
2022/07/26 07:00:59;;;;;;;8.28;6.42;;;;;;;27.84;44.65;100310.64;1753133;80;21030;-83
2022/07/26 07:03:26;;;;;;;10.65;6.10;;;;;;;27.84;44.60;100311.42;1753157;80;21042;-83
2022/07/26 07:05:52;;;;;;;9.25;6.37;;;;;;;27.85;44.58;100306.64;1753597;80;20935;-83
2022/07/26 07:08:20;;;;;;;9.43;6.40;;;;;;;27.85;44.52;100308.84;1753630;81;21061;-83
2022/07/26 07:10:46;;;;;;;10.85;5.83;;;;;;;27.84;44.51;100308.63;1754084;80;21730;-83
2022/07/26 07:13:13;;;;;;;11.93;6.00;;;;;;;27.85;44.47;100306.05;1754178;81;21491;-83
2022/07/26 07:15:39;;;;;;;10.40;6.47;;;;;;;27.88;44.46;100305.91;1753772;81;21030;-83
2022/07/26 07:18:06;;;;;;;8.23;6.40;;;;;;;27.89;44.45;100304.70;1753951;81;21050;-83
2022/07/26 07:20:33;;;;;;;9.68;6.60;;;;;;;27.90;44.45;100307.12;1754322;81;21041;-83
2022/07/26 07:22:59;;;;;;;7.08;5.53;;;;;;;27.93;44.44;100309.73;1754014;80;21049;-83
2022/07/26 07:25:25;;;;;;;12.65;6.67;;;;;;;27.93;44.40;100305.55;1753972;80;21534;-83
2022/07/26 07:27:58;;;;;;;11.22;6.72;;;;;;;27.93;44.36;100306.35;1753564;81;21038;-83
2022/07/26 07:30:25;;;;;;;8.03;6.08;;;;;;;27.95;44.33;100306.80;1754061;81;21567;-84
2022/07/26 07:32:51;;;;;;;10.00;6.42;;;;;;;27.97;44.32;100312.80;1754023;81;21046;-84
2022/07/26 07:35:18;;;;;;;10.30;6.42;;;;;;;27.98;44.28;100306.03;1754068;81;21025;-84
2022/07/26 07:37:44;;;;;;;12.93;6.00;;;;;;;28.00;44.25;100303.67;1753811;81;21447;-83
2022/07/26 07:40:11;;;;;;;12.40;6.05;;;;;;;28.01;44.20;100303.86;1754249;80;21013;-84
2022/07/26 07:42:38;;;;;;;7.33;5.33;;;;;;;28.03;44.15;100301.50;1754244;80;21065;-83
2022/07/26 07:45:08;;;;;;;13.72;6.70;;;;;;;28.05;44.09;100300.52;1754827;80;21233;-84
2022/07/26 07:47:34;;;;;;;10.70;6.00;;;;;;;28.07;44.07;100305.73;1758569;80;21057;-84
2022/07/26 07:50:01;;;;;;;14.73;6.75;;;;;;;28.09;44.07;100301.39;1758695;80;21557;-83
2022/07/26 07:52:27;;;;;;;8.30;6.00;;;;;;;28.11;44.03;100303.82;1729917;81;21010;-83
2022/07/26 07:54:53;;;;;;;9.50;5.85;;;;;;;28.12;44.00;100297.86;1722031;83;21061;-83
2022/07/26 07:57:20;;;;;;;10.85;6.00;;;;;;;28.14;43.92;100302.45;1722207;82;21057;-83
2022/07/26 07:59:46;;;;;;;11.65;6.45;;;;;;;28.16;43.84;100299.30;1721644;82;21108;-83
2022/07/26 08:02:19;;;;;;;15.18;6.55;;;;;;;28.18;43.77;100291.93;1722115;81;21292;-84
2022/07/26 08:04:45;;;;;;;10.40;6.12;;;;;;;28.20;43.58;100292.34;1721550;81;21097;-84
2022/07/26 08:07:11;;;;;;;9.35;5.53;;;;;;;28.23;43.35;100291.56;1725122;80;21077;-83
2022/07/26 08:09:38;;;;;;;9.13;5.70;;;;;;;28.24;43.23;100290.38;1760919;80;21096;-82
2022/07/26 08:12:05;;;;;;;8.90;5.80;;;;;;;28.25;43.10;100283.02;1761492;80;21566;-83
2022/07/26 08:14:31;;;;;;;9.38;5.62;;;;;;;28.27;42.97;100285.42;1757189;81;21162;-84
2022/07/26 08:17:07;;;;;;;7.00;5.42;;;;;;;28.29;42.80;100281.66;1756595;81;21365;-84
2022/07/26 08:19:33;;;;;;;11.75;5.20;;;;;;;28.30;42.68;100284.08;1756559;81;21530;-84
2022/07/26 08:22:00;;;;;;;5.92;5.30;;;;;;;28.31;42.61;100275.88;1756363;81;21700;-83
2022/07/26 08:24:27;;;;;;;8.00;5.67;;;;;;;28.30;42.58;100271.49;1756636;81;21063;-83
2022/07/26 08:26:53;;;;;;;10.78;5.87;;;;;;;28.32;42.41;100276.69;1757332;80;21717;-82
2022/07/26 08:29:20;;;;;;;13.93;6.28;;;;;;;28.36;42.31;100270.53;1747167;80;20960;-83
2022/07/26 08:31:47;;;;;;;9.50;5.60;;;;;;;28.40;42.18;100275.57;1756181;80;21089;-84
2022/07/26 08:34:14;;;;;;;8.45;5.70;;;;;;;28.43;42.11;100272.80;1757552;80;21074;-83
2022/07/26 08:36:40;;;;;;;8.80;5.60;;;;;;;28.45;42.10;100266.84;1757592;80;21066;-83
2022/07/26 08:39:07;;;;;;;9.00;5.28;;;;;;;28.50;42.06;100267.30;1757197;80;21053;-83
2022/07/26 08:41:33;;;;;;;8.83;5.35;;;;;;;28.55;42.02;100259.16;1757783;80;21023;-83
2022/07/26 08:44:07;;;;;;;7.72;6.08;;;;;;;28.58;41.95;100257.78;1758245;80;21082;-83
2022/07/26 08:46:36;;;;;;;6.90;5.33;;;;;;;28.59;41.95;100258.59;1757943;80;21043;-83
2022/07/26 08:49:05;;;;;;;7.37;5.95;;;;;;;28.57;42.00;100253.96;1756194;80;21055;-83
2022/07/26 08:51:31;;;;;;;13.35;6.08;;;;;;;28.59;41.83;100253.80;1756292;80;22024;-83
2022/07/26 08:53:59;;;;;;;10.23;5.80;;;;;;;28.69;41.60;100249.47;1756978;80;21034;-83
2022/07/26 08:56:26;;;;;;;13.08;5.42;;;;;;;28.76;41.52;100254.37;1757219;80;21499;-82
2022/07/26 08:58:52;;;;;;;6.97;5.90;;;;;;;28.76;41.49;100255.19;1757214;80;21070;-83
2022/07/26 09:01:19;;;;;;;8.98;5.47;;;;;;;28.75;41.46;100242.38;1757934;80;21029;-82
2022/07/26 09:03:45;;;;;;;6.75;5.70;;;;;;;28.74;41.45;100244.15;1757393;80;21114;-83
2022/07/26 09:06:20;;;;;;;6.65;5.65;;;;;;;28.75;41.34;100240.97;1764317;80;21415;-82
2022/07/26 09:08:52;;;;;;;6.50;5.80;;;;;;;28.78;41.31;100251.39;1765341;79;21014;-82
2022/07/26 09:11:30;;;;;;;6.17;5.50;;;;;;;28.76;41.31;100242.59;1723437;81;21422;-82
2022/07/26 09:14:04;;;;;;;10.53;5.78;;;;;;;28.75;41.33;100238.17;1720871;81;21536;-84
2022/07/26 09:16:30;;;;;;;9.38;6.40;;;;;;;28.75;41.36;100237.36;1733636;80;22091;-83
2022/07/26 09:19:20;;;;;;;6.72;6.05;;;;;;;28.75;41.38;100242.38;1757256;80;21109;-83
2022/07/26 09:21:46;;;;;;;7.55;6.17;;;;;;;28.77;41.38;100229.40;1756832;80;21498;-83
2022/07/26 09:24:15;;;;;;;6.17;5.53;;;;;;;28.73;41.44;100230.74;1757791;81;21030;-83
2022/07/26 09:26:41;;;;;;;8.00;6.00;;;;;;;28.72;41.47;100224.96;1723718;81;21010;-83
2022/07/26 09:29:10;;;;;;;6.58;5.80;;;;;;;28.77;41.53;100235.77;1695177;83;21669;-83
2022/07/26 09:31:37;;;;;;;9.05;6.10;;;;;;;28.85;41.41;100230.47;1757711;80;21565;-82
2022/07/26 09:34:05;;;;;;;7.62;6.15;;;;;;;28.92;41.40;100228.31;1757983;80;21070;-82
2022/07/26 09:36:32;;;;;;;7.12;5.60;;;;;;;29.01;41.21;100228.78;1758028;80;21532;-83
2022/07/26 09:39:04;;;;;;;8.08;5.95;;;;;;;29.05;41.11;100231.02;1757811;80;21031;-83
2022/07/26 09:41:34;;;;;;;7.10;6.05;;;;;;;29.05;41.10;100231.02;1757448;81;21127;-84
2022/07/26 09:44:03;;;;;;;;;;;;;;;29.04;41.12;100223.80;1760452;80;21093;-84
2022/07/26 09:46:30;;;;;;;7.15;5.67;;;;;;;29.02;41.18;100215.80;1751394;80;20185;-83
2022/07/26 09:48:59;;;;;;;8.13;6.15;;;;;;;29.00;41.19;100213.16;1758230;81;21513;-83
2022/07/26 09:51:42;;;;;;;6.87;6.17;;;;;;;29.01;41.18;100208.58;1756557;80;21006;-82
2022/07/26 09:54:10;;;;;;;6.22;5.62;;;;;;;29.01;41.21;100213.37;1758371;80;21222;-82
2022/07/26 09:56:49;;;;;;;7.95;5.85;;;;;;;28.98;41.26;100207.94;1757941;80;21063;-81
2022/07/26 09:59:21;;;;;;;8.08;6.80;;;;;;;28.97;41.34;100207.76;1757318;80;21099;-82
2022/07/26 10:01:48;;;;;;;6.70;6.03;;;;;;;28.95;41.39;100212.93;1757549;80;21119;-82
2022/07/26 10:04:14;;;;;;;6.30;5.70;;;;;;;28.95;41.32;100198.92;1758167;81;21082;-81
2022/07/26 10:06:41;;;;;;;7.12;5.97;;;;;;;28.94;41.33;100197.94;1758036;81;21475;-82
2022/07/26 10:09:07;;;;;;;6.72;5.72;;;;;;;28.92;41.37;100197.50;1745971;81;22160;-84
2022/07/26 10:11:39;;;;;;;7.83;5.62;;;;;;;28.95;41.30;100198.12;1734747;81;21022;-83
2022/07/26 10:14:44;;;;;;;5.90;5.22;;;;;;;28.94;41.30;100198.71;1757701;80;21581;-83
2022/07/26 10:17:40;;;;;;;6.72;5.97;;;;;;;28.95;41.32;100196.72;1754180;80;21670;-84
2022/07/26 10:20:34;;;;;;;7.60;5.55;;;;;;;28.92;41.28;100192.71;1741200;81;21171;-83
2022/07/26 10:23:01;;;;;;;9.03;5.80;;;;;;;28.95;41.10;100179.91;1741402;80;21066;-84
2022/07/26 10:25:33;;;;;;;6.42;5.83;;;;;;;28.96;41.03;100181.53;1758638;80;21042;-84
2022/07/26 10:27:59;;;;;;;8.30;5.72;;;;;;;28.95;41.02;100175.13;1758447;80;21030;-84
2022/07/26 10:30:26;;;;;;;6.85;6.22;;;;;;;28.96;40.98;100175.34;1758294;80;21009;-84
2022/07/26 10:33:09;;;;;;;6.87;5.78;;;;;;;28.96;40.95;100174.53;1783256;80;21223;-83
2022/07/26 10:35:45;;;;;;;6.80;5.40;;;;;;;28.96;40.90;100177.33;1762008;80;21093;-84
2022/07/26 10:38:24;;;;;;;6.22;5.67;;;;;;;28.95;40.84;100168.12;1758398;80;21385;-83
2022/07/26 10:41:00;;;;;;;8.65;6.10;;;;;;;28.95;40.85;100165.91;1756379;80;21079;-83
2022/07/26 10:43:27;;;;;;;7.75;6.20;;;;;;;28.96;40.79;100167.53;1764588;79;21070;-83
2022/07/26 10:46:19;;;;;;;6.50;5.80;;;;;;;28.97;40.77;100166.34;1748727;81;21056;-83
2022/07/26 10:49:07;;;;;;;6.22;5.62;;;;;;;28.97;40.78;100167.74;1750987;81;21113;-83
2022/07/26 10:51:36;;;;;;;7.12;5.70;;;;;;;28.99;40.71;100161.95;1752106;80;21125;-83
2022/07/26 10:54:09;;;;;;;6.17;5.60;;;;;;;28.99;40.64;100159.73;1750441;80;21431;-83
2022/07/26 10:56:35;;;;;;;6.85;5.80;;;;;;;29.00;40.64;100163.56;1761030;80;21031;-82
2022/07/26 10:59:03;;;;;;;7.15;6.20;;;;;;;28.98;40.62;100156.75;1785029;80;21377;-82
2022/07/26 11:01:38;;;;;;;9.73;6.33;;;;;;;28.97;40.57;100153.14;1750848;80;21040;-83
2022/07/26 11:04:21;;;;;;;6.87;5.95;;;;;;;28.97;40.53;100147.55;1752117;80;21051;-83
2022/07/26 11:06:47;;;;;;;6.90;6.20;;;;;;;28.98;40.58;100145.55;1751232;80;21054;-83
2022/07/26 11:09:14;;;;;;;6.87;6.10;;;;;;;29.02;40.51;100149.98;1750590;80;21067;-83
2022/07/26 11:11:41;;;;;;;8.93;6.83;;;;;;;29.06;40.47;100141.59;1750991;80;21557;-83
2022/07/26 11:14:10;;;;;;;6.70;6.03;;;;;;;29.07;40.42;100145.98;1750620;80;21042;-83
2022/07/26 11:16:43;;;;;;;9.17;6.13;;;;;;;29.08;40.35;100142.00;1751603;80;21045;-83
2022/07/26 11:19:16;;;;;;;7.85;6.10;;;;;;;29.10;40.30;100137.41;1753003;80;21682;-84
2022/07/26 11:21:44;;;;;;;6.95;5.95;;;;;;;29.14;40.25;100141.84;1749235;80;21537;-82
2022/07/26 11:24:10;;;;;;;7.30;6.00;;;;;;;29.13;40.21;100135.22;1746918;80;21070;-83
2022/07/26 11:26:42;;;;;;;7.47;6.42;;;;;;;29.14;40.18;100130.64;1750339;80;21545;-82
2022/07/26 11:29:11;;;;;;;6.85;6.12;;;;;;;29.14;40.09;100131.23;1749595;80;21022;-83